sensor_id;sensor_type;location;lat;lon;timestamp;temperature;humidity
23499;DHT22;11926;48.120;11.562;2022-08-30T00:02:34;17.70;91.80
23499;DHT22;11926;48.120;11.562;2022-08-30T00:05:20;17.70;91.90
23499;DHT22;11926;48.120;11.562;2022-08-30T00:08:08;17.70;91.90
23499;DHT22;11926;48.120;11.562;2022-08-30T00:10:55;17.70;91.90
23499;DHT22;11926;48.120;11.562;2022-08-30T00:13:45;17.70;91.80
23499;DHT22;11926;48.120;11.562;2022-08-30T00:16:34;17.70;91.90
23499;DHT22;11926;48.120;11.562;2022-08-30T00:19:22;17.70;91.90
23499;DHT22;11926;48.120;11.562;2022-08-30T00:22:10;17.60;91.90
23499;DHT22;11926;48.120;11.562;2022-08-30T00:24:59;17.60;91.90
23499;DHT22;11926;48.120;11.562;2022-08-30T00:27:46;17.60;92.00
23499;DHT22;11926;48.120;11.562;2022-08-30T00:30:37;17.60;92.00
23499;DHT22;11926;48.120;11.562;2022-08-30T00:33:25;17.60;92.00
23499;DHT22;11926;48.120;11.562;2022-08-30T00:36:13;17.50;92.00
23499;DHT22;11926;48.120;11.562;2022-08-30T00:39:01;17.50;92.10
23499;DHT22;11926;48.120;11.562;2022-08-30T00:41:49;17.50;92.10
23499;DHT22;11926;48.120;11.562;2022-08-30T00:44:38;17.50;92.20
23499;DHT22;11926;48.120;11.562;2022-08-30T00:47:27;17.40;92.20
23499;DHT22;11926;48.120;11.562;2022-08-30T00:50:16;17.40;92.60
23499;DHT22;11926;48.120;11.562;2022-08-30T00:53:09;17.40;92.20
23499;DHT22;11926;48.120;11.562;2022-08-30T00:56:00;17.30;92.20
23499;DHT22;11926;48.120;11.562;2022-08-30T00:58:50;17.30;92.20
23499;DHT22;11926;48.120;11.562;2022-08-30T01:01:38;17.30;92.20
23499;DHT22;11926;48.120;11.562;2022-08-30T01:04:27;17.30;92.20
23499;DHT22;11926;48.120;11.562;2022-08-30T01:07:16;17.30;92.20
23499;DHT22;11926;48.120;11.562;2022-08-30T01:10:05;17.20;92.30
23499;DHT22;11926;48.120;11.562;2022-08-30T01:12:55;17.20;92.60
23499;DHT22;11926;48.120;11.562;2022-08-30T01:15:43;17.20;92.20
23499;DHT22;11926;48.120;11.562;2022-08-30T01:18:32;17.10;92.20
23499;DHT22;11926;48.120;11.562;2022-08-30T01:21:26;17.10;92.20
23499;DHT22;11926;48.120;11.562;2022-08-30T01:24:18;17.10;92.30
23499;DHT22;11926;48.120;11.562;2022-08-30T01:27:06;17.00;92.30
23499;DHT22;11926;48.120;11.562;2022-08-30T01:29:54;17.00;92.20
23499;DHT22;11926;48.120;11.562;2022-08-30T01:32:46;17.00;92.20
23499;DHT22;11926;48.120;11.562;2022-08-30T01:35:44;17.00;92.30
23499;DHT22;11926;48.120;11.562;2022-08-30T01:38:36;17.00;92.40
23499;DHT22;11926;48.120;11.562;2022-08-30T01:41:27;17.00;92.40
23499;DHT22;11926;48.120;11.562;2022-08-30T01:44:15;16.90;92.40
23499;DHT22;11926;48.120;11.562;2022-08-30T01:47:03;16.90;92.40
23499;DHT22;11926;48.120;11.562;2022-08-30T01:49:51;16.90;92.50
23499;DHT22;11926;48.120;11.562;2022-08-30T01:52:39;16.80;92.50
23499;DHT22;11926;48.120;11.562;2022-08-30T01:55:27;16.80;92.60
23499;DHT22;11926;48.120;11.562;2022-08-30T01:58:16;16.80;92.70
23499;DHT22;11926;48.120;11.562;2022-08-30T02:01:07;16.70;92.60
23499;DHT22;11926;48.120;11.562;2022-08-30T02:03:58;16.70;92.70
23499;DHT22;11926;48.120;11.562;2022-08-30T02:06:46;16.70;92.80
23499;DHT22;11926;48.120;11.562;2022-08-30T02:09:34;16.70;92.90
23499;DHT22;11926;48.120;11.562;2022-08-30T02:12:22;16.70;92.90
23499;DHT22;11926;48.120;11.562;2022-08-30T02:15:12;16.60;92.90
23499;DHT22;11926;48.120;11.562;2022-08-30T02:18:00;16.70;92.90
23499;DHT22;11926;48.120;11.562;2022-08-30T02:20:47;16.60;92.80
23499;DHT22;11926;48.120;11.562;2022-08-30T02:23:35;16.60;92.90
23499;DHT22;11926;48.120;11.562;2022-08-30T02:26:23;16.60;92.90
23499;DHT22;11926;48.120;11.562;2022-08-30T02:29:12;16.60;92.90
23499;DHT22;11926;48.120;11.562;2022-08-30T02:32:01;16.60;92.90
23499;DHT22;11926;48.120;11.562;2022-08-30T02:34:49;16.60;92.90
23499;DHT22;11926;48.120;11.562;2022-08-30T02:37:37;16.60;92.90
23499;DHT22;11926;48.120;11.562;2022-08-30T02:40:25;16.50;92.90
23499;DHT22;11926;48.120;11.562;2022-08-30T02:43:13;16.50;92.90
23499;DHT22;11926;48.120;11.562;2022-08-30T02:46:01;16.50;92.90
23499;DHT22;11926;48.120;11.562;2022-08-30T02:48:50;16.50;92.90
23499;DHT22;11926;48.120;11.562;2022-08-30T02:51:38;16.50;92.90
23499;DHT22;11926;48.120;11.562;2022-08-30T02:54:25;16.50;92.90
23499;DHT22;11926;48.120;11.562;2022-08-30T02:57:13;16.40;92.90
23499;DHT22;11926;48.120;11.562;2022-08-30T03:00:07;16.40;92.90
23499;DHT22;11926;48.120;11.562;2022-08-30T03:02:57;16.40;92.90
23499;DHT22;11926;48.120;11.562;2022-08-30T03:05:46;16.40;92.90
23499;DHT22;11926;48.120;11.562;2022-08-30T03:08:34;16.40;92.90
23499;DHT22;11926;48.120;11.562;2022-08-30T03:11:22;16.30;92.90
23499;DHT22;11926;48.120;11.562;2022-08-30T03:14:10;16.30;92.80
23499;DHT22;11926;48.120;11.562;2022-08-30T03:16:58;16.30;92.90
23499;DHT22;11926;48.120;11.562;2022-08-30T03:19:46;16.30;92.90
23499;DHT22;11926;48.120;11.562;2022-08-30T03:22:36;16.30;93.00
23499;DHT22;11926;48.120;11.562;2022-08-30T03:25:23;16.20;93.00
23499;DHT22;11926;48.120;11.562;2022-08-30T03:28:11;16.20;93.00
23499;DHT22;11926;48.120;11.562;2022-08-30T03:30:59;16.20;93.00
23499;DHT22;11926;48.120;11.562;2022-08-30T03:33:47;16.20;93.10
23499;DHT22;11926;48.120;11.562;2022-08-30T03:36:35;16.20;93.20
23499;DHT22;11926;48.120;11.562;2022-08-30T03:39:24;16.10;93.20
23499;DHT22;11926;48.120;11.562;2022-08-30T03:42:12;16.10;93.50
23499;DHT22;11926;48.120;11.562;2022-08-30T03:45:02;16.10;93.20
23499;DHT22;11926;48.120;11.562;2022-08-30T03:47:51;16.10;93.20
23499;DHT22;11926;48.120;11.562;2022-08-30T03:50:39;16.10;93.20
23499;DHT22;11926;48.120;11.562;2022-08-30T03:53:26;16.10;93.30
23499;DHT22;11926;48.120;11.562;2022-08-30T03:56:16;16.10;93.30
23499;DHT22;11926;48.120;11.562;2022-08-30T03:59:05;16.10;93.30
23499;DHT22;11926;48.120;11.562;2022-08-30T04:01:52;16.00;93.30
23499;DHT22;11926;48.120;11.562;2022-08-30T04:04:40;16.00;93.30
23499;DHT22;11926;48.120;11.562;2022-08-30T04:07:27;16.00;93.30
23499;DHT22;11926;48.120;11.562;2022-08-30T04:10:15;16.00;93.30
23499;DHT22;11926;48.120;11.562;2022-08-30T04:13:04;16.00;93.30
23499;DHT22;11926;48.120;11.562;2022-08-30T04:15:52;16.00;93.30
23499;DHT22;11926;48.120;11.562;2022-08-30T04:18:40;16.00;93.30
23499;DHT22;11926;48.120;11.562;2022-08-30T04:21:27;15.90;93.30
23499;DHT22;11926;48.120;11.562;2022-08-30T04:24:15;15.90;93.40
23499;DHT22;11926;48.120;11.562;2022-08-30T04:27:03;15.90;93.40
23499;DHT22;11926;48.120;11.562;2022-08-30T04:29:52;15.90;93.50
23499;DHT22;11926;48.120;11.562;2022-08-30T04:32:42;15.80;93.40
23499;DHT22;11926;48.120;11.562;2022-08-30T04:35:29;15.80;93.50
23499;DHT22;11926;48.120;11.562;2022-08-30T04:38:17;15.80;93.50
23499;DHT22;11926;48.120;11.562;2022-08-30T04:41:09;15.80;93.50
23499;DHT22;11926;48.120;11.562;2022-08-30T04:44:01;15.80;93.60
23499;DHT22;11926;48.120;11.562;2022-08-30T04:46:51;15.80;93.70
23499;DHT22;11926;48.120;11.562;2022-08-30T04:49:39;15.80;93.70
23499;DHT22;11926;48.120;11.562;2022-08-30T04:52:27;15.80;93.80
23499;DHT22;11926;48.120;11.562;2022-08-30T04:55:15;15.80;93.80
23499;DHT22;11926;48.120;11.562;2022-08-30T04:58:05;15.80;93.80
23499;DHT22;11926;48.120;11.562;2022-08-30T05:00:53;15.80;93.90
23499;DHT22;11926;48.120;11.562;2022-08-30T05:03:43;15.80;93.90
23499;DHT22;11926;48.120;11.562;2022-08-30T05:06:31;15.80;94.00
23499;DHT22;11926;48.120;11.562;2022-08-30T05:09:19;15.80;94.10
23499;DHT22;11926;48.120;11.562;2022-08-30T05:12:07;15.80;94.10
23499;DHT22;11926;48.120;11.562;2022-08-30T05:14:55;15.80;94.20
23499;DHT22;11926;48.120;11.562;2022-08-30T05:17:44;15.90;94.20
23499;DHT22;11926;48.120;11.562;2022-08-30T05:20:34;15.80;94.30
23499;DHT22;11926;48.120;11.562;2022-08-30T05:23:22;15.90;94.40
23499;DHT22;11926;48.120;11.562;2022-08-30T05:26:12;15.90;94.40
23499;DHT22;11926;48.120;11.562;2022-08-30T05:29:00;16.00;94.60
23499;DHT22;11926;48.120;11.562;2022-08-30T05:31:49;16.00;94.60
23499;DHT22;11926;48.120;11.562;2022-08-30T05:34:36;16.00;94.60
23499;DHT22;11926;48.120;11.562;2022-08-30T05:37:25;16.10;94.70
23499;DHT22;11926;48.120;11.562;2022-08-30T05:40:13;16.10;94.80
23499;DHT22;11926;48.120;11.562;2022-08-30T05:43:02;16.20;94.90
23499;DHT22;11926;48.120;11.562;2022-08-30T05:45:58;16.20;95.00
23499;DHT22;11926;48.120;11.562;2022-08-30T05:48:47;16.30;95.00
23499;DHT22;11926;48.120;11.562;2022-08-30T05:51:36;16.30;95.00
23499;DHT22;11926;48.120;11.562;2022-08-30T05:54:30;16.40;95.50
23499;DHT22;11926;48.120;11.562;2022-08-30T05:57:18;16.50;95.10
23499;DHT22;11926;48.120;11.562;2022-08-30T06:00:07;16.60;95.30
23499;DHT22;11926;48.120;11.562;2022-08-30T06:02:57;16.60;95.20
23499;DHT22;11926;48.120;11.562;2022-08-30T06:05:44;16.70;95.20
23499;DHT22;11926;48.120;11.562;2022-08-30T06:08:32;16.80;95.70
23499;DHT22;11926;48.120;11.562;2022-08-30T06:11:22;16.90;95.30
23499;DHT22;11926;48.120;11.562;2022-08-30T06:14:11;17.00;95.30
23499;DHT22;11926;48.120;11.562;2022-08-30T06:16:59;17.10;95.30
23499;DHT22;11926;48.120;11.562;2022-08-30T06:19:46;17.20;95.20
23499;DHT22;11926;48.120;11.562;2022-08-30T06:22:33;17.30;95.30
23499;DHT22;11926;48.120;11.562;2022-08-30T06:25:21;17.40;95.20
23499;DHT22;11926;48.120;11.562;2022-08-30T06:28:10;17.50;95.10
23499;DHT22;11926;48.120;11.562;2022-08-30T06:30:57;17.60;95.00
23499;DHT22;11926;48.120;11.562;2022-08-30T06:33:45;17.70;94.90
23499;DHT22;11926;48.120;11.562;2022-08-30T06:36:33;17.80;94.60
23499;DHT22;11926;48.120;11.562;2022-08-30T06:39:21;17.90;94.60
23499;DHT22;11926;48.120;11.562;2022-08-30T06:42:08;18.00;94.40
23499;DHT22;11926;48.120;11.562;2022-08-30T06:44:57;18.20;94.30
23499;DHT22;11926;48.120;11.562;2022-08-30T06:47:44;18.30;94.30
23499;DHT22;11926;48.120;11.562;2022-08-30T06:50:31;18.40;94.20
23499;DHT22;11926;48.120;11.562;2022-08-30T06:53:19;18.50;94.20
23499;DHT22;11926;48.120;11.562;2022-08-30T06:56:08;18.70;94.00
23499;DHT22;11926;48.120;11.562;2022-08-30T06:59:01;18.80;93.70
23499;DHT22;11926;48.120;11.562;2022-08-30T07:01:50;18.90;93.60
23499;DHT22;11926;48.120;11.562;2022-08-30T07:04:37;19.10;93.40
23499;DHT22;11926;48.120;11.562;2022-08-30T07:07:24;19.30;93.40
23499;DHT22;11926;48.120;11.562;2022-08-30T07:10:14;19.40;93.40
23499;DHT22;11926;48.120;11.562;2022-08-30T07:13:02;19.60;92.70
23499;DHT22;11926;48.120;11.562;2022-08-30T07:15:50;19.80;92.60
23499;DHT22;11926;48.120;11.562;2022-08-30T07:18:39;20.10;92.30
23499;DHT22;11926;48.120;11.562;2022-08-30T07:21:42;20.30;92.10
23499;DHT22;11926;48.120;11.562;2022-08-30T07:24:29;20.50;91.50
23499;DHT22;11926;48.120;11.562;2022-08-30T07:27:16;20.60;91.30
23499;DHT22;11926;48.120;11.562;2022-08-30T07:30:05;20.80;91.10
23499;DHT22;11926;48.120;11.562;2022-08-30T07:32:54;21.00;90.60
23499;DHT22;11926;48.120;11.562;2022-08-30T07:35:43;21.10;90.00
23499;DHT22;11926;48.120;11.562;2022-08-30T07:38:30;21.30;89.70
23499;DHT22;11926;48.120;11.562;2022-08-30T07:41:22;21.50;88.80
23499;DHT22;11926;48.120;11.562;2022-08-30T07:44:10;21.60;87.70
23499;DHT22;11926;48.120;11.562;2022-08-30T07:46:57;21.80;87.30
23499;DHT22;11926;48.120;11.562;2022-08-30T07:49:44;22.00;86.10
23499;DHT22;11926;48.120;11.562;2022-08-30T07:52:33;22.20;86.50
23499;DHT22;11926;48.120;11.562;2022-08-30T07:55:25;22.40;85.20
23499;DHT22;11926;48.120;11.562;2022-08-30T07:58:13;22.60;83.60
23499;DHT22;11926;48.120;11.562;2022-08-30T08:01:00;22.70;83.40
23499;DHT22;11926;48.120;11.562;2022-08-30T08:03:49;22.90;82.50
23499;DHT22;11926;48.120;11.562;2022-08-30T08:06:38;23.10;81.40
23499;DHT22;11926;48.120;11.562;2022-08-30T08:09:27;23.30;80.90
23499;DHT22;11926;48.120;11.562;2022-08-30T08:12:14;23.50;79.70
23499;DHT22;11926;48.120;11.562;2022-08-30T08:15:01;23.70;79.00
23499;DHT22;11926;48.120;11.562;2022-08-30T08:17:54;23.90;78.30
23499;DHT22;11926;48.120;11.562;2022-08-30T08:20:41;24.10;77.80
23499;DHT22;11926;48.120;11.562;2022-08-30T08:23:28;24.30;75.70
23499;DHT22;11926;48.120;11.562;2022-08-30T08:26:17;24.50;75.40
23499;DHT22;11926;48.120;11.562;2022-08-30T08:29:07;24.70;74.20
23499;DHT22;11926;48.120;11.562;2022-08-30T08:31:54;24.80;72.60
23499;DHT22;11926;48.120;11.562;2022-08-30T08:34:42;24.90;72.30
23499;DHT22;11926;48.120;11.562;2022-08-30T08:37:29;25.10;72.80
23499;DHT22;11926;48.120;11.562;2022-08-30T08:40:18;25.30;72.80
23499;DHT22;11926;48.120;11.562;2022-08-30T08:43:11;25.50;71.30
23499;DHT22;11926;48.120;11.562;2022-08-30T08:46:03;25.70;71.60
23499;DHT22;11926;48.120;11.562;2022-08-30T08:48:56;26.00;70.50
23499;DHT22;11926;48.120;11.562;2022-08-30T08:51:45;26.20;68.70
23499;DHT22;11926;48.120;11.562;2022-08-30T08:54:51;26.40;67.60
23499;DHT22;11926;48.120;11.562;2022-08-30T08:57:42;26.60;66.00
23499;DHT22;11926;48.120;11.562;2022-08-30T09:00:31;26.90;64.80
23499;DHT22;11926;48.120;11.562;2022-08-30T09:03:19;27.00;64.20
23499;DHT22;11926;48.120;11.562;2022-08-30T09:12:05;27.60;60.70
23499;DHT22;11926;48.120;11.562;2022-08-30T09:15:04;27.70;59.60
23499;DHT22;11926;48.120;11.562;2022-08-30T09:17:57;27.90;59.40
23499;DHT22;11926;48.120;11.562;2022-08-30T09:20:47;27.90;58.70
23499;DHT22;11926;48.120;11.562;2022-08-30T09:23:34;28.20;59.70
23499;DHT22;11926;48.120;11.562;2022-08-30T09:26:32;28.40;57.70
23499;DHT22;11926;48.120;11.562;2022-08-30T09:29:19;28.40;57.10
23499;DHT22;11926;48.120;11.562;2022-08-30T09:32:22;28.40;57.70
23499;DHT22;11926;48.120;11.562;2022-08-30T09:35:17;28.60;56.40
23499;DHT22;11926;48.120;11.562;2022-08-30T09:38:07;28.70;56.60
23499;DHT22;11926;48.120;11.562;2022-08-30T09:41:00;28.80;57.20
23499;DHT22;11926;48.120;11.562;2022-08-30T09:44:04;29.00;56.40
23499;DHT22;11926;48.120;11.562;2022-08-30T09:46:54;29.20;55.80
23499;DHT22;11926;48.120;11.562;2022-08-30T09:49:42;29.10;55.50
23499;DHT22;11926;48.120;11.562;2022-08-30T09:52:41;29.10;54.60
23499;DHT22;11926;48.120;11.562;2022-08-30T09:55:46;29.10;55.20
23499;DHT22;11926;48.120;11.562;2022-08-30T09:58:51;29.10;55.10
23499;DHT22;11926;48.120;11.562;2022-08-30T10:01:46;29.20;56.40
23499;DHT22;11926;48.120;11.562;2022-08-30T10:04:42;29.30;55.50
23499;DHT22;11926;48.120;11.562;2022-08-30T10:07:38;29.40;54.50
23499;DHT22;11926;48.120;11.562;2022-08-30T10:10:30;29.50;54.20
23499;DHT22;11926;48.120;11.562;2022-08-30T10:13:37;29.40;53.20
23499;DHT22;11926;48.120;11.562;2022-08-30T10:16:33;29.10;53.20
23499;DHT22;11926;48.120;11.562;2022-08-30T10:19:30;28.90;54.00
23499;DHT22;11926;48.120;11.562;2022-08-30T10:22:27;28.90;54.50
23499;DHT22;11926;48.120;11.562;2022-08-30T10:25:20;29.00;53.10
23499;DHT22;11926;48.120;11.562;2022-08-30T10:28:12;28.80;52.00
23499;DHT22;11926;48.120;11.562;2022-08-30T10:31:06;28.70;52.10
23499;DHT22;11926;48.120;11.562;2022-08-30T10:33:59;28.70;54.20
23499;DHT22;11926;48.120;11.562;2022-08-30T10:36:53;28.70;53.00
23499;DHT22;11926;48.120;11.562;2022-08-30T10:39:46;28.70;52.60
23499;DHT22;11926;48.120;11.562;2022-08-30T10:42:36;28.60;53.30
23499;DHT22;11926;48.120;11.562;2022-08-30T10:45:26;28.60;52.10
23499;DHT22;11926;48.120;11.562;2022-08-30T10:48:20;28.50;53.10
23499;DHT22;11926;48.120;11.562;2022-08-30T10:51:13;28.50;52.70
23499;DHT22;11926;48.120;11.562;2022-08-30T10:54:07;28.50;52.20
23499;DHT22;11926;48.120;11.562;2022-08-30T10:56:56;28.40;52.60
23499;DHT22;11926;48.120;11.562;2022-08-30T10:59:49;28.30;52.20
23499;DHT22;11926;48.120;11.562;2022-08-30T11:09:07;28.10;52.40
23499;DHT22;11926;48.120;11.562;2022-08-30T11:12:19;28.10;53.30
23499;DHT22;11926;48.120;11.562;2022-08-30T11:15:15;28.30;53.20
23499;DHT22;11926;48.120;11.562;2022-08-30T11:18:11;28.40;55.00
23499;DHT22;11926;48.120;11.562;2022-08-30T11:21:16;28.60;55.20
23499;DHT22;11926;48.120;11.562;2022-08-30T11:24:06;28.80;55.40
23499;DHT22;11926;48.120;11.562;2022-08-30T11:27:00;28.80;53.40
23499;DHT22;11926;48.120;11.562;2022-08-30T11:29:47;28.80;54.10
23499;DHT22;11926;48.120;11.562;2022-08-30T11:32:59;28.80;53.00
23499;DHT22;11926;48.120;11.562;2022-08-30T11:35:54;28.70;52.40
23499;DHT22;11926;48.120;11.562;2022-08-30T11:38:57;28.70;53.70
23499;DHT22;11926;48.120;11.562;2022-08-30T11:41:47;28.90;53.40
23499;DHT22;11926;48.120;11.562;2022-08-30T11:48:45;29.00;52.30
23499;DHT22;11926;48.120;11.562;2022-08-30T11:58:16;28.80;52.10
23499;DHT22;11926;48.120;11.562;2022-08-30T12:01:31;28.80;51.40
23499;DHT22;11926;48.120;11.562;2022-08-30T12:04:45;28.70;51.00
23499;DHT22;11926;48.120;11.562;2022-08-30T12:07:57;28.80;51.30
23499;DHT22;11926;48.120;11.562;2022-08-30T12:13:50;29.10;52.70
23499;DHT22;11926;48.120;11.562;2022-08-30T12:19:48;29.30;51.50
23499;DHT22;11926;48.120;11.562;2022-08-30T12:22:35;29.30;50.90
23499;DHT22;11926;48.120;11.562;2022-08-30T12:25:28;29.40;52.70
23499;DHT22;11926;48.120;11.562;2022-08-30T12:28:21;29.50;50.70
23499;DHT22;11926;48.120;11.562;2022-08-30T12:31:10;29.40;49.70
23499;DHT22;11926;48.120;11.562;2022-08-30T12:34:00;29.20;50.90
23499;DHT22;11926;48.120;11.562;2022-08-30T12:36:54;29.10;51.60
23499;DHT22;11926;48.120;11.562;2022-08-30T12:39:43;29.00;49.90
23499;DHT22;11926;48.120;11.562;2022-08-30T12:42:40;28.90;52.90
23499;DHT22;11926;48.120;11.562;2022-08-30T12:45:33;29.10;51.70
23499;DHT22;11926;48.120;11.562;2022-08-30T12:48:25;29.20;51.40
23499;DHT22;11926;48.120;11.562;2022-08-30T12:51:34;29.30;50.30
23499;DHT22;11926;48.120;11.562;2022-08-30T12:54:28;29.30;50.50
23499;DHT22;11926;48.120;11.562;2022-08-30T12:57:34;29.40;50.90
23499;DHT22;11926;48.120;11.562;2022-08-30T13:00:24;29.60;50.30
23499;DHT22;11926;48.120;11.562;2022-08-30T13:03:28;29.60;51.00
23499;DHT22;11926;48.120;11.562;2022-08-30T13:06:35;29.70;51.30
23499;DHT22;11926;48.120;11.562;2022-08-30T13:09:27;29.80;52.30
23499;DHT22;11926;48.120;11.562;2022-08-30T13:12:21;29.90;51.40
23499;DHT22;11926;48.120;11.562;2022-08-30T13:15:16;29.90;50.50
23499;DHT22;11926;48.120;11.562;2022-08-30T13:18:18;29.80;50.30
23499;DHT22;11926;48.120;11.562;2022-08-30T13:21:21;29.70;50.20
23499;DHT22;11926;48.120;11.562;2022-08-30T13:24:09;29.80;50.70
23499;DHT22;11926;48.120;11.562;2022-08-30T13:27:02;29.90;51.60
23499;DHT22;11926;48.120;11.562;2022-08-30T13:29:51;29.90;50.00
23499;DHT22;11926;48.120;11.562;2022-08-30T13:32:38;29.90;50.60
23499;DHT22;11926;48.120;11.562;2022-08-30T13:35:26;29.90;51.70
23499;DHT22;11926;48.120;11.562;2022-08-30T13:38:14;29.90;49.50
23499;DHT22;11926;48.120;11.562;2022-08-30T13:41:02;29.80;49.80
23499;DHT22;11926;48.120;11.562;2022-08-30T13:43:51;29.70;49.50
23499;DHT22;11926;48.120;11.562;2022-08-30T13:46:59;29.80;48.90
23499;DHT22;11926;48.120;11.562;2022-08-30T13:50:07;29.60;48.70
23499;DHT22;11926;48.120;11.562;2022-08-30T13:52:54;29.40;48.90
23499;DHT22;11926;48.120;11.562;2022-08-30T13:55:42;29.30;50.40
23499;DHT22;11926;48.120;11.562;2022-08-30T13:58:32;29.30;49.90
23499;DHT22;11926;48.120;11.562;2022-08-30T14:01:21;29.30;49.30
23499;DHT22;11926;48.120;11.562;2022-08-30T14:04:10;29.20;48.70
23499;DHT22;11926;48.120;11.562;2022-08-30T14:07:00;29.10;49.50
23499;DHT22;11926;48.120;11.562;2022-08-30T14:10:07;29.10;49.40
23499;DHT22;11926;48.120;11.562;2022-08-30T14:13:14;28.90;49.60
23499;DHT22;11926;48.120;11.562;2022-08-30T14:16:05;28.90;50.30
23499;DHT22;11926;48.120;11.562;2022-08-30T14:19:15;28.80;49.70
23499;DHT22;11926;48.120;11.562;2022-08-30T14:22:03;28.90;49.90
23499;DHT22;11926;48.120;11.562;2022-08-30T14:24:50;29.00;49.80
23499;DHT22;11926;48.120;11.562;2022-08-30T14:27:40;29.10;49.20
23499;DHT22;11926;48.120;11.562;2022-08-30T14:30:27;29.10;48.70
23499;DHT22;11926;48.120;11.562;2022-08-30T14:33:15;29.00;48.50
23499;DHT22;11926;48.120;11.562;2022-08-30T14:36:04;29.00;48.80
23499;DHT22;11926;48.120;11.562;2022-08-30T14:39:00;29.00;49.30
23499;DHT22;11926;48.120;11.562;2022-08-30T14:41:54;28.90;48.70
23499;DHT22;11926;48.120;11.562;2022-08-30T14:44:41;28.90;48.50
23499;DHT22;11926;48.120;11.562;2022-08-30T14:47:42;28.90;48.60
23499;DHT22;11926;48.120;11.562;2022-08-30T14:50:29;28.90;49.00
23499;DHT22;11926;48.120;11.562;2022-08-30T14:53:17;28.90;49.70
23499;DHT22;11926;48.120;11.562;2022-08-30T14:56:07;29.00;49.00
23499;DHT22;11926;48.120;11.562;2022-08-30T14:58:56;29.10;48.10
23499;DHT22;11926;48.120;11.562;2022-08-30T15:01:45;29.10;49.20
23499;DHT22;11926;48.120;11.562;2022-08-30T15:04:33;29.10;48.50
23499;DHT22;11926;48.120;11.562;2022-08-30T15:07:20;29.20;48.20
23499;DHT22;11926;48.120;11.562;2022-08-30T15:10:09;29.20;47.50
23499;DHT22;11926;48.120;11.562;2022-08-30T15:12:59;29.10;46.90
23499;DHT22;11926;48.120;11.562;2022-08-30T15:15:50;29.10;47.40
23499;DHT22;11926;48.120;11.562;2022-08-30T15:18:37;29.10;46.50
23499;DHT22;11926;48.120;11.562;2022-08-30T15:21:28;29.00;46.20
23499;DHT22;11926;48.120;11.562;2022-08-30T15:24:18;29.00;46.50
23499;DHT22;11926;48.120;11.562;2022-08-30T15:27:16;28.90;48.60
23499;DHT22;11926;48.120;11.562;2022-08-30T15:30:04;28.90;47.70
23499;DHT22;11926;48.120;11.562;2022-08-30T15:32:52;28.90;47.60
23499;DHT22;11926;48.120;11.562;2022-08-30T15:35:39;28.90;47.30
23499;DHT22;11926;48.120;11.562;2022-08-30T15:38:26;28.90;46.90
23499;DHT22;11926;48.120;11.562;2022-08-30T15:41:14;28.80;46.90
23499;DHT22;11926;48.120;11.562;2022-08-30T15:44:03;28.80;46.50
23499;DHT22;11926;48.120;11.562;2022-08-30T15:46:51;28.70;47.50
23499;DHT22;11926;48.120;11.562;2022-08-30T15:52:42;28.60;47.10
23499;DHT22;11926;48.120;11.562;2022-08-30T15:55:29;28.50;46.80
23499;DHT22;11926;48.120;11.562;2022-08-30T15:58:16;28.30;47.00
23499;DHT22;11926;48.120;11.562;2022-08-30T16:01:05;28.20;48.30
23499;DHT22;11926;48.120;11.562;2022-08-30T16:03:53;28.20;47.70
23499;DHT22;11926;48.120;11.562;2022-08-30T16:06:42;28.10;48.00
23499;DHT22;11926;48.120;11.562;2022-08-30T16:09:29;28.10;47.90
23499;DHT22;11926;48.120;11.562;2022-08-30T16:12:17;28.00;47.90
23499;DHT22;11926;48.120;11.562;2022-08-30T16:15:09;27.90;48.00
23499;DHT22;11926;48.120;11.562;2022-08-30T16:17:58;27.90;48.00
23499;DHT22;11926;48.120;11.562;2022-08-30T16:20:46;27.80;48.50
23499;DHT22;11926;48.120;11.562;2022-08-30T16:23:37;27.80;48.50
23499;DHT22;11926;48.120;11.562;2022-08-30T16:26:30;27.80;48.60
23499;DHT22;11926;48.120;11.562;2022-08-30T16:29:18;27.80;48.70
23499;DHT22;11926;48.120;11.562;2022-08-30T16:32:06;27.70;48.80
23499;DHT22;11926;48.120;11.562;2022-08-30T16:34:54;27.60;48.80
23499;DHT22;11926;48.120;11.562;2022-08-30T16:37:41;27.60;49.20
23499;DHT22;11926;48.120;11.562;2022-08-30T16:40:29;27.50;50.20
23499;DHT22;11926;48.120;11.562;2022-08-30T16:43:17;27.50;50.70
23499;DHT22;11926;48.120;11.562;2022-08-30T16:46:08;27.50;50.10
23499;DHT22;11926;48.120;11.562;2022-08-30T16:48:57;27.40;49.70
23499;DHT22;11926;48.120;11.562;2022-08-30T16:51:48;27.40;50.90
23499;DHT22;11926;48.120;11.562;2022-08-30T16:54:37;27.30;50.30
23499;DHT22;11926;48.120;11.562;2022-08-30T16:57:24;27.20;50.10
23499;DHT22;11926;48.120;11.562;2022-08-30T17:00:13;27.10;50.60
23499;DHT22;11926;48.120;11.562;2022-08-30T17:03:01;27.00;50.80
23499;DHT22;11926;48.120;11.562;2022-08-30T17:05:48;26.90;50.80
23499;DHT22;11926;48.120;11.562;2022-08-30T17:08:44;26.80;50.70
23499;DHT22;11926;48.120;11.562;2022-08-30T17:11:32;26.70;50.80
23499;DHT22;11926;48.120;11.562;2022-08-30T17:14:20;26.60;51.00
23499;DHT22;11926;48.120;11.562;2022-08-30T17:17:14;26.50;51.70
23499;DHT22;11926;48.120;11.562;2022-08-30T17:20:08;26.50;51.70
23499;DHT22;11926;48.120;11.562;2022-08-30T17:22:56;26.40;52.00
23499;DHT22;11926;48.120;11.562;2022-08-30T17:25:49;26.40;52.40
23499;DHT22;11926;48.120;11.562;2022-08-30T17:28:38;26.40;52.30
23499;DHT22;11926;48.120;11.562;2022-08-30T17:31:27;26.30;53.00
23499;DHT22;11926;48.120;11.562;2022-08-30T17:34:16;26.30;53.30
23499;DHT22;11926;48.120;11.562;2022-08-30T17:37:06;26.20;53.10
23499;DHT22;11926;48.120;11.562;2022-08-30T17:39:54;26.20;53.20
23499;DHT22;11926;48.120;11.562;2022-08-30T17:42:44;26.20;55.70
23499;DHT22;11926;48.120;11.562;2022-08-30T17:45:34;26.10;56.20
23499;DHT22;11926;48.120;11.562;2022-08-30T17:48:23;26.10;56.40
23499;DHT22;11926;48.120;11.562;2022-08-30T17:51:10;26.10;56.40
23499;DHT22;11926;48.120;11.562;2022-08-30T17:53:58;26.00;57.20
23499;DHT22;11926;48.120;11.562;2022-08-30T17:56:46;26.00;56.00
23499;DHT22;11926;48.120;11.562;2022-08-30T17:59:35;25.90;57.30
23499;DHT22;11926;48.120;11.562;2022-08-30T18:02:21;25.80;56.00
23499;DHT22;11926;48.120;11.562;2022-08-30T18:05:15;25.70;57.30
23499;DHT22;11926;48.120;11.562;2022-08-30T18:08:09;25.70;57.70
23499;DHT22;11926;48.120;11.562;2022-08-30T18:10:57;25.60;58.50
23499;DHT22;11926;48.120;11.562;2022-08-30T18:13:44;25.50;57.50